Time;durP1;ratioP1;P1;durP2;ratioP2;P2;SDS_P1;SDS_P2;PMS_P1;PMS_P2;Temp;Humidity;BMP_temperature;BMP_pressure;BME280_temperature;BME280_humidity;BME280_pressure;Samples;Min_cycle;Max_cycle;Signal;HPM_P1;HPM_P2
2024/03/29 01:43:09;;;;;;;26.07;25.17;;;20.80;54.20;;;;;;5033710;28;20503;-70
2024/03/29 01:45:39;;;;;;;23.97;23.07;;;20.80;54.20;;;;;;5055090;28;20440;-70
2024/03/29 01:48:06;;;;;;;24.40;23.60;;;20.80;54.30;;;;;;5054493;28;20463;-71
2024/03/29 01:50:33;;;;;;;25.00;24.13;;;20.80;54.30;;;;;;5054781;28;20456;-70
2024/03/29 01:53:00;;;;;;;24.10;23.30;;;20.70;54.20;;;;;;5054883;28;20454;-71
2024/03/29 01:55:27;;;;;;;23.80;23.10;;;20.70;54.20;;;;;;5054702;28;21018;-70
2024/03/29 01:57:56;;;;;;;24.20;23.30;;;20.70;54.30;;;;;;5054322;28;20811;-70
2024/03/29 02:00:24;;;;;;;23.70;22.90;;;20.70;54.30;;;;;;5054696;28;20464;-70
2024/03/29 02:02:53;;;;;;;24.23;23.40;;;20.70;54.40;;;;;;5054778;28;20472;-70
2024/03/29 02:05:20;;;;;;;23.60;22.80;;;20.70;54.40;;;;;;5054569;28;20436;-70
2024/03/29 02:07:47;;;;;;;22.90;22.20;;;20.60;54.30;;;;;;5054078;28;20432;-70
2024/03/29 02:10:15;;;;;;;23.43;22.67;;;20.60;54.40;;;;;;5054420;28;20471;-70
2024/03/29 02:12:41;;;;;;;23.20;22.40;;;20.60;54.40;;;;;;5054750;28;20455;-70
2024/03/29 02:15:09;;;;;;;19.00;18.40;;;20.60;54.50;;;;;;5071979;28;20984;-70
2024/03/29 02:17:36;;;;;;;19.70;19.00;;;20.60;54.60;;;;;;5074015;28;20216;-71
2024/03/29 02:20:03;;;;;;;22.80;22.10;;;20.60;54.60;;;;;;5074264;28;20466;-71
2024/03/29 02:22:32;;;;;;;24.13;23.07;;;20.60;54.60;;;;;;5074162;28;20443;-71
2024/03/29 02:25:00;;;;;;;24.63;23.43;;;20.50;54.60;;;;;;5074267;28;20443;-71
2024/03/29 02:27:28;;;;;;;23.77;22.97;;;20.50;54.60;;;;;;5073806;28;20454;-70
2024/03/29 02:29:54;;;;;;;23.50;22.60;;;20.50;54.70;;;;;;5073928;28;20478;-70
2024/03/29 02:32:21;;;;;;;22.93;22.13;;;20.50;54.70;;;;;;5074220;28;20439;-71
2024/03/29 02:34:48;;;;;;;23.63;22.83;;;20.50;54.70;;;;;;5074131;28;20435;-71
2024/03/29 02:37:14;;;;;;;22.83;22.13;;;20.50;54.70;;;;;;5073959;28;20479;-71
2024/03/29 02:39:41;;;;;;;22.90;22.20;;;20.50;54.70;;;;;;5073817;28;20526;-71
2024/03/29 02:42:09;;;;;;;18.80;18.20;;;20.40;54.70;;;;;;5074330;28;20792;-71
2024/03/29 02:44:36;;;;;;;19.47;18.70;;;20.40;54.70;;;;;;5074755;28;20435;-71
2024/03/29 02:47:03;;;;;;;19.00;18.30;;;20.40;54.80;;;;;;5074049;28;20443;-71
2024/03/29 02:49:29;;;;;;;19.33;18.63;;;20.40;54.80;;;;;;5073550;28;20466;-70
2024/03/29 02:51:56;;;;;;;18.73;18.03;;;20.40;54.90;;;;;;5073932;28;20459;-71
2024/03/29 02:54:23;;;;;;;18.53;17.93;;;20.40;54.80;;;;;;5073768;28;20541;-71
2024/03/29 02:56:50;;;;;;;18.80;18.20;;;20.40;54.80;;;;;;5073691;28;20507;-71
2024/03/29 02:59:17;;;;;;;20.13;19.53;;;20.40;54.80;;;;;;5074548;28;20443;-70
2024/03/29 03:01:44;;;;;;;19.33;18.73;;;20.40;54.90;;;;;;5073561;28;20506;-71
2024/03/29 03:04:09;;;;;;;19.50;18.90;;;20.40;55.00;;;;;;5073648;28;20435;-71
2024/03/29 03:06:36;;;;;;;18.90;18.30;;;20.30;54.90;;;;;;5073538;28;20438;-70
2024/03/29 03:11:47;;;;;;;19.07;18.47;;;20.30;54.90;;;;;;5073572;28;20469;-70
2024/03/29 03:14:14;;;;;;;19.23;18.60;;;20.30;55.00;;;;;;5083775;28;20950;-70
2024/03/29 03:16:42;;;;;;;20.00;19.30;;;20.30;55.10;;;;;;5093531;28;20485;-71
2024/03/29 03:19:08;;;;;;;19.60;18.70;;;20.30;55.10;;;;;;5093133;28;20445;-71
2024/03/29 03:21:36;;;;;;;19.10;18.50;;;20.30;55.10;;;;;;5093179;28;20550;-71
2024/03/29 03:24:04;;;;;;;19.03;18.33;;;20.30;55.10;;;;;;5093367;28;21016;-71
2024/03/29 03:26:31;;;;;;;18.40;17.80;;;20.30;55.10;;;;;;5093387;28;20515;-71
2024/03/29 03:28:57;;;;;;;18.53;17.93;;;20.30;55.10;;;;;;5092993;28;20438;-70
2024/03/29 03:31:23;;;;;;;18.80;18.20;;;20.30;55.20;;;;;;5093056;28;20470;-70
2024/03/29 03:33:51;;;;;;;18.60;18.00;;;20.30;55.30;;;;;;5093242;28;20215;-71
2024/03/29 03:36:17;;;;;;;23.10;22.30;;;20.20;55.20;;;;;;5092953;28;20524;-70
2024/03/29 03:38:43;;;;;;;19.30;18.70;;;20.20;55.20;;;;;;5092704;28;20442;-70
2024/03/29 03:41:10;;;;;;;19.87;18.93;;;20.20;55.30;;;;;;5093030;28;21122;-70
2024/03/29 03:43:36;;;;;;;19.27;18.67;;;20.20;55.30;;;;;;5093200;28;20258;-71
2024/03/29 03:46:03;;;;;;;19.57;18.97;;;20.20;55.30;;;;;;5093189;28;20443;-71
2024/03/29 03:48:29;;;;;;;19.40;18.80;;;20.20;55.90;;;;;;5092532;28;20306;-70
2024/03/29 03:50:57;;;;;;;18.97;18.37;;;20.20;55.40;;;;;;5092776;28;20545;-70
2024/03/29 03:53:23;;;;;;;19.10;18.50;;;20.20;55.40;;;;;;5093057;28;20257;-70
2024/03/29 03:55:50;;;;;;;20.67;19.87;;;20.20;56.00;;;;;;5092900;28;20478;-70
2024/03/29 03:58:15;;;;;;;21.83;21.13;;;20.20;55.40;;;;;;5092637;28;20212;-70
2024/03/29 04:00:42;;;;;;;19.43;18.83;;;20.20;55.40;;;;;;5092785;28;20965;-71
2024/03/29 04:03:08;;;;;;;20.87;20.10;;;20.20;55.40;;;;;;5093006;28;20258;-70
2024/03/29 04:05:38;;;;;;;20.60;19.90;;;20.20;55.50;;;;;;5092429;28;20798;-70
2024/03/29 04:08:05;;;;;;;21.10;20.20;;;20.20;55.50;;;;;;5091854;28;20227;-71
2024/03/29 04:10:32;;;;;;;20.37;19.57;;;20.20;55.50;;;;;;5092539;28;21224;-70
2024/03/29 04:12:58;;;;;;;19.93;19.33;;;20.20;55.50;;;;;;5092409;28;20446;-71
2024/03/29 04:15:25;;;;;;;19.87;19.27;;;20.10;55.50;;;;;;5072058;28;20806;-70
2024/03/29 04:17:50;;;;;;;20.63;19.93;;;20.10;55.50;;;;;;5071720;28;20205;-70
2024/03/29 04:20:18;;;;;;;20.20;19.60;;;20.10;55.50;;;;;;5072039;28;20466;-70
2024/03/29 04:22:45;;;;;;;20.33;19.73;;;20.10;55.50;;;;;;5072288;28;20615;-70
2024/03/29 04:25:14;;;;;;;20.17;19.57;;;20.10;55.50;;;;;;5072022;28;20520;-70
2024/03/29 04:27:40;;;;;;;20.00;19.30;;;20.10;55.60;;;;;;5071757;28;20442;-71
2024/03/29 04:30:08;;;;;;;20.10;19.50;;;20.10;55.60;;;;;;5071782;28;20483;-72
2024/03/29 04:32:34;;;;;;;20.40;19.60;;;20.10;55.60;;;;;;5072036;28;20935;-70
2024/03/29 04:35:01;;;;;;;20.80;20.00;;;20.10;55.60;;;;;;5072022;28;20444;-71
2024/03/29 04:37:28;;;;;;;20.43;19.83;;;20.10;55.70;;;;;;5071589;28;20634;-70
2024/03/29 04:39:54;;;;;;;20.70;19.90;;;20.10;55.60;;;;;;5071862;28;20439;-70
2024/03/29 04:42:22;;;;;;;20.10;19.50;;;20.10;55.60;;;;;;5071912;28;20456;-71
2024/03/29 04:44:49;;;;;;;19.80;19.20;;;20.10;55.60;;;;;;5071914;28;20526;-71
2024/03/29 04:47:16;;;;;;;20.37;19.60;;;20.10;55.70;;;;;;5071984;28;20944;-70
2024/03/29 04:49:43;;;;;;;20.20;19.50;;;20.10;55.70;;;;;;5071349;28;20931;-70
2024/03/29 04:52:09;;;;;;;20.00;19.40;;;20.10;55.80;;;;;;5071777;28;20446;-71
2024/03/29 04:54:36;;;;;;;20.17;19.47;;;20.10;55.70;;;;;;5071715;28;20440;-70
2024/03/29 04:57:06;;;;;;;19.53;18.87;;;20.10;55.80;;;;;;5071780;28;20486;-71
2024/03/29 04:59:34;;;;;;;20.60;19.90;;;20.10;55.80;;;;;;5071246;28;20447;-71
2024/03/29 05:02:01;;;;;;;20.50;19.80;;;20.10;55.80;;;;;;5071518;28;20463;-70
2024/03/29 05:04:28;;;;;;;21.13;20.37;;;20.00;55.70;;;;;;5071564;28;20448;-72
2024/03/29 05:06:55;;;;;;;20.37;19.67;;;20.00;55.70;;;;;;5071738;28;20431;-71
2024/03/29 05:09:23;;;;;;;20.10;19.40;;;20.00;55.80;;;;;;5071312;28;20441;-70
2024/03/29 05:11:50;;;;;;;20.10;19.50;;;20.00;55.80;;;;;;5071662;28;20463;-69
2024/03/29 05:14:18;;;;;;;20.40;19.70;;;20.00;55.70;;;;;;5071768;28;20497;-68
2024/03/29 05:16:46;;;;;;;20.67;19.87;;;20.10;55.80;;;;;;5071709;28;20902;-67
2024/03/29 05:19:14;;;;;;;20.20;19.50;;;20.10;55.80;;;;;;5074895;28;20950;-68
2024/03/29 05:21:41;;;;;;;20.70;20.10;;;20.10;55.90;;;;;;5075445;28;20466;-68
2024/03/29 05:24:08;;;;;;;20.80;20.20;;;20.10;56.00;;;;;;5075564;28;20445;-69
2024/03/29 05:26:35;;;;;;;20.83;20.23;;;20.10;56.10;;;;;;5075344;28;20462;-68
2024/03/29 05:29:04;;;;;;;20.80;20.10;;;20.10;56.20;;;;;;5074935;28;20438;-68
2024/03/29 05:31:30;;;;;;;21.00;20.30;;;20.10;56.30;;;;;;5075174;28;20552;-71
2024/03/29 05:34:00;;;;;;;21.07;20.47;;;20.10;56.30;;;;;;5075214;28;20448;-70
2024/03/29 05:36:26;;;;;;;20.97;20.27;;;20.20;56.40;;;;;;5074991;28;20482;-70
2024/03/29 05:38:53;;;;;;;21.20;20.50;;;20.20;56.40;;;;;;5074867;28;20438;-70
2024/03/29 05:41:20;;;;;;;21.90;21.20;;;20.20;56.40;;;;;;5075052;28;20810;-70
2024/03/29 05:43:47;;;;;;;21.27;20.57;;;20.20;56.40;;;;;;5075139;28;20439;-71
2024/03/29 05:46:17;;;;;;;20.73;20.13;;;20.20;56.40;;;;;;5075080;28;20439;-70
2024/03/29 05:48:44;;;;;;;23.30;22.60;;;20.30;56.90;;;;;;5074453;28;20471;-70
2024/03/29 05:51:12;;;;;;;22.70;21.67;;;20.40;57.30;;;;;;5075022;28;20471;-70
2024/03/29 05:53:39;;;;;;;22.60;21.90;;;20.40;57.20;;;;;;5074874;28;20431;-69
2024/03/29 05:56:06;;;;;;;20.67;19.98;;;20.40;57.00;;;;;;5074426;28;20450;-68
2024/03/29 05:58:34;;;;;;;18.00;17.40;;;20.50;56.80;;;;;;5074324;28;20426;-67
2024/03/29 06:01:01;;;;;;;21.40;20.80;;;20.60;56.60;;;;;;5074635;28;20239;-66
2024/03/29 06:03:29;;;;;;;18.95;17.95;;;20.70;56.20;;;;;;5074004;28;20442;-68
2024/03/29 06:05:55;;;;;;;21.83;21.13;;;20.80;56.30;;;;;;5074776;28;20201;-71
2024/03/29 06:08:25;;;;;;;22.80;21.90;;;20.90;56.00;;;;;;5074343;28;20447;-70
2024/03/29 06:10:53;;;;;;;24.43;23.53;;;21.00;55.20;;;;;;5074529;28;21034;-70
2024/03/29 06:17:22;;;;;;;22.90;22.20;;;21.00;55.00;;;;;;5077503;28;20496;-71
2024/03/29 06:18:59;;;;;;;25.20;24.30;;;21.10;55.10;;;;;;5094193;28;20425;-71
2024/03/29 06:21:26;;;;;;;23.97;22.97;;;21.10;55.10;;;;;;5094455;28;20465;-71
2024/03/29 06:23:54;;;;;;;22.87;22.17;;;21.10;55.10;;;;;;5094602;28;20434;-71
2024/03/29 06:26:21;;;;;;;23.13;22.37;;;21.10;55.10;;;;;;5094429;28;20434;-72
2024/03/29 06:28:48;;;;;;;22.30;21.50;;;21.10;55.10;;;;;;5093608;28;21011;-69
2024/03/29 06:31:15;;;;;;;21.87;21.17;;;21.10;55.00;;;;;;5093843;28;20470;-66
2024/03/29 06:33:42;;;;;;;22.27;21.57;;;21.10;55.00;;;;;;5094485;28;20804;-75
2024/03/29 06:36:10;;;;;;;23.60;22.90;;;21.10;54.90;;;;;;5094579;28;20443;-69
2024/03/29 06:38:37;;;;;;;22.50;21.60;;;21.20;55.30;;;;;;5093649;28;20549;-68
2024/03/29 06:41:05;;;;;;;23.57;22.77;;;21.10;55.30;;;;;;5094186;28;20465;-67
2024/03/29 06:43:32;;;;;;;23.83;23.03;;;21.20;55.30;;;;;;5094140;28;20438;-67
2024/03/29 06:45:59;;;;;;;23.60;22.90;;;21.20;55.30;;;;;;5094699;28;20805;-68
2024/03/29 06:48:27;;;;;;;19.90;19.30;;;21.10;55.50;;;;;;5092756;28;20431;-68
2024/03/29 06:50:53;;;;;;;22.80;22.00;;;21.20;55.20;;;;;;5094059;28;20220;-71
2024/03/29 06:53:21;;;;;;;23.30;22.60;;;21.30;54.90;;;;;;5093999;28;20442;-71
2024/03/29 06:55:49;;;;;;;23.97;23.27;;;21.40;54.60;;;;;;5094003;28;20942;-73
2024/03/29 06:58:18;;;;;;;22.93;22.23;;;21.40;54.40;;;;;;5093935;28;20539;-70
2024/03/29 07:00:49;;;;;;;22.83;22.07;;;21.40;54.40;;;;;;5094592;28;20465;-70
2024/03/29 07:03:15;;;;;;;22.93;22.23;;;21.40;54.50;;;;;;5094314;28;20450;-71
2024/03/29 07:05:42;;;;;;;22.87;22.17;;;21.40;54.40;;;;;;5094681;28;20438;-70
2024/03/29 07:08:09;;;;;;;24.40;23.60;;;21.40;54.60;;;;;;5093814;28;20507;-70
2024/03/29 07:10:36;;;;;;;23.23;22.40;;;21.40;54.50;;;;;;5093679;28;20458;-70
2024/03/29 07:13:03;;;;;;;23.90;23.10;;;21.40;54.50;;;;;;5093544;28;20470;-71
2024/03/29 07:15:31;;;;;;;22.47;21.70;;;21.40;54.50;;;;;;5073682;28;20451;-70
2024/03/29 07:17:58;;;;;;;23.00;22.30;;;21.40;54.50;;;;;;5073211;28;20881;-70
2024/03/29 07:20:26;;;;;;;24.47;23.50;;;21.40;54.60;;;;;;5073228;28;20465;-69
2024/03/29 07:22:53;;;;;;;22.73;22.03;;;21.40;54.40;;;;;;5073104;28;20991;-69
2024/03/29 07:25:20;;;;;;;22.37;21.67;;;21.40;54.40;;;;;;5073321;28;20531;-70
2024/03/29 07:27:46;;;;;;;23.30;22.60;;;21.40;54.40;;;;;;5072645;28;20439;-68
2024/03/29 07:30:14;;;;;;;24.10;23.20;;;21.50;54.60;;;;;;5072674;28;20478;-68
2024/03/29 07:32:43;;;;;;;25.13;24.23;;;21.50;54.40;;;;;;5072913;28;20954;-67
2024/03/29 07:35:10;;;;;;;24.67;23.80;;;21.50;54.30;;;;;;5072909;28;20522;-66
2024/03/29 07:37:37;;;;;;;24.63;23.83;;;21.50;54.30;;;;;;5072481;28;20475;-67
2024/03/29 07:40:04;;;;;;;23.33;22.53;;;21.50;54.30;;;;;;5072835;28;20459;-66
2024/03/29 07:42:30;;;;;;;26.13;25.23;;;21.50;54.30;;;;;;5071963;28;20883;-66
2024/03/29 07:44:57;;;;;;;25.00;24.10;;;21.50;54.40;;;;;;5072681;28;20458;-66
2024/03/29 07:47:25;;;;;;;24.97;24.07;;;21.50;54.40;;;;;;5072800;28;20440;-71
2024/03/29 07:49:54;;;;;;;24.10;23.30;;;21.60;54.50;;;;;;5072442;28;20447;-69
2024/03/29 07:52:21;;;;;;;25.33;24.43;;;21.60;54.30;;;;;;5072760;28;20931;-68
2024/03/29 07:54:48;;;;;;;24.50;23.63;;;21.60;54.60;;;;;;5072575;28;20446;-71
2024/03/29 07:57:17;;;;;;;25.00;24.20;;;21.70;54.50;;;;;;5077532;28;20843;-70
2024/03/29 07:59:44;;;;;;;24.60;23.80;;;21.70;54.30;;;;;;5074871;28;20969;-69
2024/03/29 08:02:10;;;;;;;24.70;23.80;;;21.60;53.10;;;;;;5074339;28;20439;-70
2024/03/29 08:04:38;;;;;;;25.30;24.30;;;21.60;53.60;;;;;;5073459;28;20440;-68
2024/03/29 08:07:06;;;;;;;24.53;23.63;;;21.60;54.00;;;;;;5072617;28;20439;-73
2024/03/29 08:09:33;;;;;;;25.03;24.03;;;21.60;54.20;;;;;;5071651;28;20962;-68
2024/03/29 08:12:00;;;;;;;25.40;24.50;;;21.60;54.30;;;;;;5072154;28;20463;-73
2024/03/29 08:14:27;;;;;;;25.57;24.77;;;21.70;54.30;;;;;;5080440;28;20459;-71
2024/03/29 08:16:55;;;;;;;24.53;23.73;;;21.70;54.40;;;;;;5094327;28;20505;-72
2024/03/29 08:19:23;;;;;;;24.87;24.03;;;21.70;54.30;;;;;;5082169;28;20915;-70
2024/03/29 08:21:50;;;;;;;24.00;23.20;;;21.70;54.40;;;;;;5072425;28;20411;-70
2024/03/29 08:24:18;;;;;;;25.90;24.83;;;21.70;54.60;;;;;;5072827;28;20201;-65
2024/03/29 08:26:45;;;;;;;23.33;22.53;;;21.80;54.40;;;;;;5072462;28;20455;-66
2024/03/29 08:29:12;;;;;;;22.63;21.93;;;21.80;54.30;;;;;;5072076;28;20842;-66
2024/03/29 08:31:40;;;;;;;13.33;12.93;;;21.80;54.70;;;;;;5072170;28;20915;-66
2024/03/29 08:34:10;;;;;;;13.50;13.20;;;21.80;54.50;;;;;;5072567;28;20443;-66
2024/03/29 08:36:37;;;;;;;13.30;12.90;;;21.70;54.50;;;;;;5072259;28;20439;-67
2024/03/29 08:39:04;;;;;;;15.33;14.83;;;21.60;54.60;;;;;;5071844;28;20439;-67
2024/03/29 08:41:32;;;;;;;14.33;13.93;;;21.60;56.30;;;;;;5072001;28;20470;-67
2024/03/29 08:43:59;;;;;;;14.13;13.73;;;21.50;56.90;;;;;;5071858;28;20474;-66
2024/03/29 08:46:28;;;;;;;15.10;14.60;;;21.50;56.50;;;;;;5072009;28;20769;-66
2024/03/29 08:48:55;;;;;;;14.13;13.43;;;21.40;56.60;;;;;;5071779;28;20436;-66
2024/03/29 08:51:22;;;;;;;13.73;13.33;;;21.40;56.60;;;;;;5072109;28;20455;-67
2024/03/29 08:53:49;;;;;;;13.00;12.70;;;21.40;56.50;;;;;;5071538;28;20446;-66
2024/03/29 08:56:16;;;;;;;14.20;13.70;;;21.40;56.50;;;;;;5071783;28;20475;-70
2024/03/29 08:58:44;;;;;;;13.80;13.30;;;21.40;56.50;;;;;;5071041;28;20490;-70
2024/03/29 09:01:15;;;;;;;14.10;13.37;;;21.40;56.70;;;;;;5071764;28;20855;-69
2024/03/29 09:03:43;;;;;;;13.40;13.00;;;21.40;56.70;;;;;;5071890;28;20481;-67
2024/03/29 09:06:09;;;;;;;13.93;13.53;;;21.40;56.60;;;;;;5071940;28;20451;-68
2024/03/29 09:08:36;;;;;;;12.30;12.00;;;21.40;57.10;;;;;;5089120;28;20427;-68
2024/03/29 09:11:04;;;;;;;12.90;12.50;;;21.40;56.50;;;;;;5092099;28;20462;-68
2024/03/29 09:13:32;;;;;;;12.80;12.13;;;21.40;56.40;;;;;;5092142;28;20443;-67
2024/03/29 09:16:00;;;;;;;13.00;12.70;;;21.40;56.60;;;;;;5091991;28;20453;-68
2024/03/29 09:18:27;;;;;;;13.13;12.70;;;21.50;56.50;;;;;;5091533;28;20489;-67
2024/03/29 09:20:58;;;;;;;13.40;13.00;;;21.50;56.50;;;;;;5092306;28;20501;-66
2024/03/29 09:23:27;;;;;;;13.47;13.17;;;21.60;56.80;;;;;;5091810;28;20483;-66
2024/03/29 09:25:54;;;;;;;13.67;13.30;;;21.50;56.60;;;;;;5091797;28;20442;-66
2024/03/29 09:28:21;;;;;;;14.80;14.00;;;21.60;56.70;;;;;;5091581;28;20441;-66
2024/03/29 09:30:49;;;;;;;14.10;13.70;;;21.60;56.80;;;;;;5091616;28;20470;-66
2024/03/29 09:33:17;;;;;;;13.33;12.93;;;21.60;56.80;;;;;;5091966;28;20446;-65
2024/03/29 09:35:45;;;;;;;13.60;13.00;;;21.50;57.00;;;;;;5091544;28;20534;-66
2024/03/29 09:38:12;;;;;;;13.50;13.07;;;21.50;57.70;;;;;;5091290;28;20549;-66
2024/03/29 09:40:39;;;;;;;11.85;11.40;;;21.50;58.10;;;;;;5090994;28;20904;-67
2024/03/29 09:43:07;;;;;;;13.00;12.60;;;21.60;58.50;;;;;;5091866;28;20197;-67
2024/03/29 09:45:36;;;;;;;13.70;13.00;;;21.60;58.40;;;;;;5091645;28;20442;-67
2024/03/29 09:48:05;;;;;;;15.00;14.60;;;21.70;58.40;;;;;;5091530;28;20445;-67
2024/03/29 09:50:36;;;;;;;15.03;14.53;;;21.70;58.20;;;;;;5091610;28;20465;-67
2024/03/29 09:53:03;;;;;;;14.83;14.33;;;21.60;58.00;;;;;;5091511;28;20991;-67
2024/03/29 09:55:30;;;;;;;15.73;14.90;;;21.60;58.00;;;;;;5091498;28;20500;-67
2024/03/29 09:57:59;;;;;;;14.53;13.93;;;21.60;58.00;;;;;;5091194;28;20478;-67
2024/03/29 10:00:28;;;;;;;14.93;14.10;;;21.60;58.30;;;;;;5091174;28;20508;-67
2024/03/29 10:02:57;;;;;;;14.33;13.77;;;21.80;58.10;;;;;;5091273;28;20956;-66
2024/03/29 10:05:25;;;;;;;15.47;14.97;;;21.70;57.30;;;;;;5093336;28;20466;-66
2024/03/29 10:07:53;;;;;;;15.43;14.70;;;21.60;57.20;;;;;;5084411;28;20431;-71
2024/03/29 10:10:20;;;;;;;15.73;14.80;;;21.60;57.90;;;;;;5074371;28;20470;-67
2024/03/29 10:12:47;;;;;;;14.60;14.20;;;21.70;58.40;;;;;;5074412;28;20927;-67
2024/03/29 10:15:15;;;;;;;14.80;14.40;;;21.70;58.20;;;;;;5074467;28;20435;-67
2024/03/29 10:17:48;;;;;;;14.80;14.20;;;21.70;58.30;;;;;;5074035;28;20479;-67
2024/03/29 10:20:16;;;;;;;15.90;15.40;;;21.70;58.50;;;;;;5074340;28;20459;-67
2024/03/29 10:22:44;;;;;;;16.67;16.07;;;21.70;58.70;;;;;;5074458;28;20434;-67
2024/03/29 10:25:13;;;;;;;15.03;14.43;;;21.70;59.10;;;;;;5074535;28;20449;-67
2024/03/29 10:27:40;;;;;;;15.40;14.90;;;21.70;59.80;;;;;;5073969;28;20435;-67
2024/03/29 10:30:09;;;;;;;15.00;14.43;;;21.70;59.90;;;;;;5074038;28;20471;-67
2024/03/29 10:32:37;;;;;;;15.23;14.80;;;21.80;60.20;;;;;;5074263;28;20439;-67
2024/03/29 10:35:05;;;;;;;14.27;13.90;;;21.80;60.10;;;;;;5074041;28;20439;-65
2024/03/29 10:37:38;;;;;;;17.90;17.00;;;21.90;60.50;;;;;;5073533;28;20803;-67
2024/03/29 10:40:07;;;;;;;15.00;14.50;;;21.90;60.00;;;;;;5073787;28;20521;-67
2024/03/29 10:42:37;;;;;;;15.40;14.90;;;21.90;59.50;;;;;;5074022;28;20447;-65
2024/03/29 10:45:06;;;;;;;16.13;15.53;;;21.80;59.40;;;;;;5073943;28;20436;-65
2024/03/29 10:47:34;;;;;;;14.57;13.97;;;21.80;59.20;;;;;;5073663;28;20432;-66
2024/03/29 10:50:02;;;;;;;15.33;14.67;;;21.80;59.70;;;;;;5074292;28;20470;-67
2024/03/29 10:52:29;;;;;;;15.33;14.83;;;21.80;59.50;;;;;;5073961;28;20809;-66
2024/03/29 10:54:56;;;;;;;14.93;14.47;;;21.90;59.50;;;;;;5073929;28;20804;-67
2024/03/29 10:57:24;;;;;;;15.63;14.63;;;21.90;59.20;;;;;;5073807;28;20470;-68
2024/03/29 11:00:02;;;;;;;15.03;14.50;;;21.90;58.90;;;;;;5073031;28;20436;-67
2024/03/29 11:02:36;;;;;;;14.20;13.80;;;21.90;59.20;;;;;;5074207;28;20787;-67
2024/03/29 11:05:09;;;;;;;12.52;12.10;;;21.90;60.10;;;;;;5073696;28;20446;-65
2024/03/29 11:07:47;;;;;;;12.00;11.70;;;21.90;59.10;;;;;;5072177;28;20474;-67
2024/03/29 11:10:16;;;;;;;15.30;14.70;;;21.80;58.70;;;;;;5073464;28;20459;-66
2024/03/29 11:12:54;;;;;;;13.23;12.83;;;21.90;58.60;;;;;;5073489;28;20442;-67
2024/03/29 11:15:29;;;;;;;12.45;12.05;;;21.90;58.40;;;;;;5072319;28;20438;-69
2024/03/29 11:17:57;;;;;;;14.63;14.17;;;21.90;58.30;;;;;;5072963;28;20220;-69
2024/03/29 11:20:33;;;;;;;16.17;15.67;;;21.90;58.40;;;;;;5073034;28;20870;-69
2024/03/29 11:23:05;;;;;;;13.35;12.75;;;21.90;58.40;;;;;;5072099;28;20434;-68
2024/03/29 11:25:43;;;;;;;14.77;14.17;;;21.80;58.50;;;;;;5073236;28;20300;-65
2024/03/29 11:28:13;;;;;;;13.60;13.30;;;22.00;58.60;;;;;;5072868;28;20470;-64
2024/03/29 11:30:47;;;;;;;13.63;13.13;;;22.00;58.80;;;;;;5072859;28;20533;-65
2024/03/29 11:33:30;;;;;;;13.83;13.33;;;22.00;58.90;;;;;;5073114;28;20475;-71
2024/03/29 11:35:58;;;;;;;14.07;13.67;;;22.00;58.70;;;;;;5073200;28;20435;-72
2024/03/29 11:38:32;;;;;;;14.43;14.03;;;22.00;58.30;;;;;;5072423;28;20490;-71
2024/03/29 11:41:06;;;;;;;14.57;13.83;;;22.00;58.80;;;;;;5072831;28;20458;-73
2024/03/29 11:43:35;;;;;;;14.60;14.20;;;21.90;58.70;;;;;;5073037;28;20434;-71
2024/03/29 11:46:05;;;;;;;14.60;14.20;;;21.90;58.90;;;;;;5072962;28;20518;-71
2024/03/29 11:48:32;;;;;;;13.87;13.47;;;21.80;59.10;;;;;;5072386;28;20428;-69
2024/03/29 11:51:00;;;;;;;14.20;13.80;;;21.80;58.30;;;;;;5074889;28;20462;-68
2024/03/29 11:53:29;;;;;;;14.17;13.77;;;21.90;58.60;;;;;;5074845;28;20436;-69
2024/03/29 11:55:56;;;;;;;15.67;14.87;;;21.90;58.80;;;;;;5072928;28;20831;-69
2024/03/29 11:58:23;;;;;;;14.10;13.70;;;21.90;58.50;;;;;;5071889;28;20536;-70
2024/03/29 12:00:51;;;;;;;14.20;13.80;;;21.90;58.20;;;;;;5072434;28;20549;-69
2024/03/29 12:03:21;;;;;;;14.77;14.37;;;22.00;57.50;;;;;;5072465;28;20954;-70
2024/03/29 12:05:50;;;;;;;14.00;13.60;;;22.10;57.10;;;;;;5072100;28;20502;-69
2024/03/29 12:08:17;;;;;;;14.77;14.37;;;22.10;57.20;;;;;;5072084;28;20443;-70
2024/03/29 12:10:44;;;;;;;14.83;14.43;;;22.10;57.00;;;;;;5072063;28;20476;-66
2024/03/29 12:13:11;;;;;;;14.83;14.40;;;22.10;56.80;;;;;;5072544;28;20446;-69
2024/03/29 12:15:38;;;;;;;14.33;13.93;;;22.10;57.00;;;;;;5072331;28;20439;-68
2024/03/29 12:18:06;;;;;;;13.40;13.10;;;22.00;56.90;;;;;;5071628;28;20501;-68
2024/03/29 12:20:34;;;;;;;13.27;12.97;;;21.90;57.90;;;;;;5072439;28;20470;-66
2024/03/29 12:23:02;;;;;;;15.93;14.77;;;21.90;58.00;;;;;;5079288;28;20812;-65
2024/03/29 12:25:29;;;;;;;16.50;15.80;;;21.90;58.90;;;;;;5075259;28;20439;-65
2024/03/29 12:27:56;;;;;;;15.00;14.60;;;21.90;59.10;;;;;;5072924;28;20931;-67
2024/03/29 12:30:23;;;;;;;15.20;14.80;;;21.90;59.40;;;;;;5076743;28;20482;-65
2024/03/29 12:33:00;;;;;;;14.80;14.40;;;21.80;59.20;;;;;;5078148;28;20454;-66
2024/03/29 12:35:28;;;;;;;15.33;14.83;;;21.80;59.50;;;;;;5075674;28;20895;-68
2024/03/29 12:37:59;;;;;;;15.07;14.57;;;21.80;59.00;;;;;;5071405;28;20946;-64
2024/03/29 12:40:29;;;;;;;16.30;15.70;;;21.90;58.30;;;;;;5072009;28;20491;-69
2024/03/29 12:42:57;;;;;;;15.80;15.40;;;22.10;58.30;;;;;;5071848;28;21022;-67
2024/03/29 12:45:25;;;;;;;20.00;19.40;;;22.10;57.60;;;;;;5072936;28;20446;-67
2024/03/29 12:47:52;;;;;;;18.80;18.20;;;22.20;57.30;;;;;;5071665;28;20436;-68
2024/03/29 12:50:26;;;;;;;19.57;18.97;;;22.30;57.20;;;;;;5071576;28;20483;-69
2024/03/29 12:52:55;;;;;;;19.60;19.00;;;22.30;56.80;;;;;;5071864;28;20435;-69
2024/03/29 12:55:24;;;;;;;19.87;19.27;;;22.40;56.50;;;;;;5071941;28;20442;-66
2024/03/29 12:57:53;;;;;;;20.17;19.57;;;22.40;56.40;;;;;;5071399;28;20439;-69
2024/03/29 13:00:20;;;;;;;19.60;19.00;;;22.50;56.50;;;;;;5071463;28;20541;-67
2024/03/29 13:02:46;;;;;;;19.37;18.77;;;22.50;56.20;;;;;;5071332;28;20451;-65
2024/03/29 13:05:13;;;;;;;19.77;19.17;;;22.50;56.20;;;;;;5071548;28;20458;-69
2024/03/29 13:07:41;;;;;;;19.60;19.00;;;22.50;56.10;;;;;;5080002;28;20442;-65
2024/03/29 13:10:13;;;;;;;19.57;18.87;;;22.50;56.10;;;;;;5091961;28;20454;-68
2024/03/29 13:12:42;;;;;;;19.20;18.67;;;22.40;55.90;;;;;;5092134;28;20503;-71
2024/03/29 13:15:17;;;;;;;18.20;17.70;;;22.30;57.60;;;;;;5091496;28;20519;-70
2024/03/29 13:17:44;;;;;;;19.90;19.30;;;22.20;56.60;;;;;;5091381;28;20807;-73
2024/03/29 13:20:11;;;;;;;20.97;20.20;;;22.10;55.70;;;;;;5091459;28;20478;-70
2024/03/29 13:22:38;;;;;;;20.60;19.90;;;22.10;56.00;;;;;;5091770;28;20491;-71
2024/03/29 13:25:05;;;;;;;21.20;20.40;;;22.00;57.30;;;;;;5089014;28;20438;-69
2024/03/29 13:27:32;;;;;;;20.80;20.00;;;22.00;57.30;;;;;;5070879;28;20444;-70
2024/03/29 13:30:00;;;;;;;21.43;20.73;;;22.10;57.60;;;;;;5070930;28;20447;-68
2024/03/29 13:32:29;;;;;;;21.13;20.47;;;22.10;57.60;;;;;;5071065;28;20471;-67
2024/03/29 13:34:56;;;;;;;22.07;21.33;;;22.10;57.70;;;;;;5071069;28;20453;-68
2024/03/29 13:37:26;;;;;;;19.70;19.10;;;22.10;57.60;;;;;;5071512;28;20435;-69
2024/03/29 13:39:53;;;;;;;20.63;19.93;;;22.10;57.70;;;;;;5072083;28;20479;-68
2024/03/29 13:42:20;;;;;;;19.90;19.20;;;22.10;57.60;;;;;;5075293;28;20446;-69
2024/03/29 13:44:50;;;;;;;20.50;19.80;;;22.10;57.80;;;;;;5074894;28;20500;-70
2024/03/29 13:47:18;;;;;;;19.63;18.93;;;22.10;58.20;;;;;;5074920;28;20435;-69
2024/03/29 13:49:46;;;;;;;19.10;18.40;;;22.10;58.40;;;;;;5074572;28;20482;-69
2024/03/29 13:52:13;;;;;;;20.83;20.03;;;22.10;59.10;;;;;;5074882;28;20443;-73
2024/03/29 13:54:46;;;;;;;19.83;19.23;;;22.10;59.60;;;;;;5074619;28;21009;-68
2024/03/29 13:57:13;;;;;;;19.90;19.10;;;22.10;59.80;;;;;;5074692;28;20450;-74
2024/03/29 13:59:42;;;;;;;20.33;19.73;;;22.10;59.60;;;;;;5074244;28;21026;-71
2024/03/29 14:02:09;;;;;;;19.80;19.20;;;22.10;59.70;;;;;;5074593;28;20811;-70
2024/03/29 14:04:37;;;;;;;20.20;19.50;;;22.10;59.60;;;;;;5074946;28;20435;-72
2024/03/29 14:07:06;;;;;;;19.90;19.30;;;22.20;59.30;;;;;;5074900;28;20439;-72
2024/03/29 14:09:33;;;;;;;19.70;19.00;;;22.10;59.10;;;;;;5074227;28;20530;-73
2024/03/29 14:12:00;;;;;;;19.63;18.33;;;22.20;58.80;;;;;;5075672;28;20463;-70
2024/03/29 14:14:27;;;;;;;19.53;18.63;;;22.20;58.90;;;;;;5078847;28;20450;-71
2024/03/29 14:16:53;;;;;;;20.03;19.33;;;22.20;59.00;;;;;;5078560;28;20443;-70
2024/03/29 14:19:20;;;;;;;22.67;20.97;;;22.30;59.00;;;;;;5077810;28;21016;-70